SACO/COR METAR and TAF weather

Enter ICAO airport designator
Station Type Date Time Source
SACO METAR 2019/08/22 05:00 UTC NOAA

SACO 220500Z 23004KT CAVOK 09/04 Q1025 NOSIG


Station Type Date Time Source
SACO Decoded METAR 2019/08/22 05:00 UTC NOAA

Station name not available
Aug 22, 2019 - 01:00 AM EDT / 2019.08.22 0500 UTC
Wind: from the SW (230 degrees) at 5 MPH (4 KT):0
Visibility: greater than 7 mile(s):0
Temperature: 48 F (9 C)
Dew Point: 39 F (4 C)
Relative Humidity: 70%
Pressure (altimeter): 30.27 in. Hg (1025 hPa)
ob: SACO 220500Z 23004KT CAVOK 09/04 Q1025 NOSIG
cycle: 5

Station Type Date Time Source
SACO TAF 2019/08/22 06:15 UTC NOAA

TAF TAF SACO 220500Z 2206/2306 34005KT 9999 SCT030 TX20/2218Z TN04/2210Z
BECMG 2210/2213 18015KT 9999 BKN025

Example: see airport list